sensor_id;sensor_type;location;lat;lon;timestamp;P1;durP1;ratioP1;P2;durP2;ratioP2
49131;SDS011;35149;51.196;6.204;2022-10-16T00:01:24;1.90;;;1.70;;
49131;SDS011;35149;51.196;6.204;2022-10-16T00:03:54;3.58;;;2.10;;
49131;SDS011;35149;51.196;6.204;2022-10-16T00:06:25;4.10;;;1.42;;
49131;SDS011;35149;51.196;6.204;2022-10-16T00:08:58;4.38;;;1.85;;
49131;SDS011;35149;51.196;6.204;2022-10-16T00:11:28;2.85;;;1.70;;
49131;SDS011;35149;51.196;6.204;2022-10-16T00:14:04;2.50;;;1.48;;
49131;SDS011;35149;51.196;6.204;2022-10-16T00:16:33;2.58;;;1.75;;
49131;SDS011;35149;51.196;6.204;2022-10-16T00:19:01;7.82;;;1.90;;
49131;SDS011;35149;51.196;6.204;2022-10-16T00:21:29;1.40;;;1.30;;
49131;SDS011;35149;51.196;6.204;2022-10-16T00:23:57;1.75;;;1.38;;
49131;SDS011;35149;51.196;6.204;2022-10-16T00:26:32;2.95;;;1.27;;
49131;SDS011;35149;51.196;6.204;2022-10-16T00:29:00;2.97;;;1.30;;
49131;SDS011;35149;51.196;6.204;2022-10-16T00:31:30;2.22;;;1.85;;
49131;SDS011;35149;51.196;6.204;2022-10-16T00:33:56;2.45;;;1.45;;
49131;SDS011;35149;51.196;6.204;2022-10-16T00:38:56;1.60;;;1.17;;
49131;SDS011;35149;51.196;6.204;2022-10-16T00:41:26;2.47;;;1.42;;
49131;SDS011;35149;51.196;6.204;2022-10-16T00:43:57;3.25;;;1.63;;
49131;SDS011;35149;51.196;6.204;2022-10-16T00:46:27;1.20;;;1.10;;
49131;SDS011;35149;51.196;6.204;2022-10-16T00:51:35;1.38;;;1.27;;
49131;SDS011;35149;51.196;6.204;2022-10-16T00:54:17;1.48;;;1.20;;
49131;SDS011;35149;51.196;6.204;2022-10-16T00:56:44;2.08;;;1.02;;
49131;SDS011;35149;51.196;6.204;2022-10-16T00:59:16;1.88;;;1.02;;
49131;SDS011;35149;51.196;6.204;2022-10-16T01:01:45;1.63;;;1.00;;
49131;SDS011;35149;51.196;6.204;2022-10-16T01:04:12;1.50;;;1.05;;
49131;SDS011;35149;51.196;6.204;2022-10-16T01:06:50;0.77;;;0.77;;
49131;SDS011;35149;51.196;6.204;2022-10-16T01:09:34;1.35;;;1.10;;
49131;SDS011;35149;51.196;6.204;2022-10-16T01:12:14;1.52;;;1.15;;
49131;SDS011;35149;51.196;6.204;2022-10-16T01:15:27;1.20;;;1.10;;
49131;SDS011;35149;51.196;6.204;2022-10-16T01:21:05;3.55;;;1.52;;
49131;SDS011;35149;51.196;6.204;2022-10-16T01:23:48;1.92;;;1.13;;
49131;SDS011;35149;51.196;6.204;2022-10-16T01:26:50;3.40;;;1.05;;
49131;SDS011;35149;51.196;6.204;2022-10-16T01:32:13;2.22;;;0.77;;
49131;SDS011;35149;51.196;6.204;2022-10-16T01:34:47;0.88;;;0.65;;
49131;SDS011;35149;51.196;6.204;2022-10-16T01:37:35;2.38;;;1.00;;
49131;SDS011;35149;51.196;6.204;2022-10-16T01:40:28;1.85;;;0.82;;
49131;SDS011;35149;51.196;6.204;2022-10-16T01:43:11;0.98;;;0.88;;
49131;SDS011;35149;51.196;6.204;2022-10-16T01:45:48;1.40;;;0.70;;
49131;SDS011;35149;51.196;6.204;2022-10-16T01:48:18;1.10;;;0.88;;
49131;SDS011;35149;51.196;6.204;2022-10-16T01:51:21;1.07;;;0.97;;
49131;SDS011;35149;51.196;6.204;2022-10-16T01:53:44;2.33;;;0.80;;
49131;SDS011;35149;51.196;6.204;2022-10-16T01:56:15;1.90;;;0.77;;
49131;SDS011;35149;51.196;6.204;2022-10-16T01:58:47;1.20;;;0.75;;
49131;SDS011;35149;51.196;6.204;2022-10-16T02:01:25;0.75;;;0.60;;
49131;SDS011;35149;51.196;6.204;2022-10-16T02:08:55;0.82;;;0.80;;
49131;SDS011;35149;51.196;6.204;2022-10-16T02:11:22;0.85;;;0.65;;
49131;SDS011;35149;51.196;6.204;2022-10-16T02:13:53;1.42;;;0.60;;
49131;SDS011;35149;51.196;6.204;2022-10-16T02:16:38;1.20;;;0.70;;
49131;SDS011;35149;51.196;6.204;2022-10-16T02:19:10;0.80;;;0.80;;
49131;SDS011;35149;51.196;6.204;2022-10-16T02:21:44;1.55;;;0.90;;
49131;SDS011;35149;51.196;6.204;2022-10-16T02:24:33;1.05;;;0.93;;
49131;SDS011;35149;51.196;6.204;2022-10-16T02:27:24;0.60;;;0.57;;
49131;SDS011;35149;51.196;6.204;2022-10-16T02:30:06;1.83;;;0.73;;
49131;SDS011;35149;51.196;6.204;2022-10-16T02:32:40;0.70;;;0.70;;
49131;SDS011;35149;51.196;6.204;2022-10-16T02:35:09;0.80;;;0.80;;
49131;SDS011;35149;51.196;6.204;2022-10-16T02:37:36;1.65;;;0.73;;
49131;SDS011;35149;51.196;6.204;2022-10-16T02:40:06;0.82;;;0.75;;
49131;SDS011;35149;51.196;6.204;2022-10-16T02:42:34;2.25;;;0.98;;
49131;SDS011;35149;51.196;6.204;2022-10-16T02:45:06;0.88;;;0.80;;
49131;SDS011;35149;51.196;6.204;2022-10-16T02:47:34;2.28;;;0.95;;
49131;SDS011;35149;51.196;6.204;2022-10-16T02:50:04;0.93;;;0.70;;
49131;SDS011;35149;51.196;6.204;2022-10-16T02:52:33;0.90;;;0.80;;
49131;SDS011;35149;51.196;6.204;2022-10-16T02:55:00;0.68;;;0.65;;
49131;SDS011;35149;51.196;6.204;2022-10-16T02:57:27;0.63;;;0.60;;
49131;SDS011;35149;51.196;6.204;2022-10-16T02:59:54;0.77;;;0.70;;
49131;SDS011;35149;51.196;6.204;2022-10-16T03:02:21;1.45;;;0.75;;
49131;SDS011;35149;51.196;6.204;2022-10-16T03:04:47;1.38;;;0.70;;
49131;SDS011;35149;51.196;6.204;2022-10-16T03:07:14;0.98;;;0.80;;
49131;SDS011;35149;51.196;6.204;2022-10-16T03:09:43;0.75;;;0.50;;
49131;SDS011;35149;51.196;6.204;2022-10-16T03:12:10;0.82;;;0.60;;
49131;SDS011;35149;51.196;6.204;2022-10-16T03:14:38;1.95;;;0.70;;
49131;SDS011;35149;51.196;6.204;2022-10-16T03:17:06;1.75;;;0.60;;
49131;SDS011;35149;51.196;6.204;2022-10-16T03:19:32;1.90;;;0.90;;
49131;SDS011;35149;51.196;6.204;2022-10-16T03:21:59;1.45;;;0.90;;
49131;SDS011;35149;51.196;6.204;2022-10-16T03:24:26;0.63;;;0.60;;
49131;SDS011;35149;51.196;6.204;2022-10-16T03:26:52;0.60;;;0.60;;
49131;SDS011;35149;51.196;6.204;2022-10-16T03:29:19;2.03;;;0.85;;
49131;SDS011;35149;51.196;6.204;2022-10-16T03:31:53;0.95;;;0.95;;
49131;SDS011;35149;51.196;6.204;2022-10-16T03:34:20;0.70;;;0.60;;
49131;SDS011;35149;51.196;6.204;2022-10-16T03:36:46;1.67;;;0.68;;
49131;SDS011;35149;51.196;6.204;2022-10-16T03:39:13;0.95;;;0.85;;
49131;SDS011;35149;51.196;6.204;2022-10-16T03:41:40;0.85;;;0.65;;
49131;SDS011;35149;51.196;6.204;2022-10-16T03:44:09;0.75;;;0.55;;
49131;SDS011;35149;51.196;6.204;2022-10-16T03:46:38;0.60;;;0.60;;
49131;SDS011;35149;51.196;6.204;2022-10-16T03:49:10;0.50;;;0.50;;
49131;SDS011;35149;51.196;6.204;2022-10-16T03:51:36;0.90;;;0.70;;
49131;SDS011;35149;51.196;6.204;2022-10-16T03:54:07;1.08;;;0.88;;
49131;SDS011;35149;51.196;6.204;2022-10-16T03:56:38;1.75;;;0.80;;
49131;SDS011;35149;51.196;6.204;2022-10-16T03:59:05;0.68;;;0.60;;
49131;SDS011;35149;51.196;6.204;2022-10-16T04:01:34;0.70;;;0.70;;
49131;SDS011;35149;51.196;6.204;2022-10-16T04:04:03;0.63;;;0.60;;
49131;SDS011;35149;51.196;6.204;2022-10-16T04:06:32;0.75;;;0.68;;
49131;SDS011;35149;51.196;6.204;2022-10-16T04:08:59;1.02;;;0.82;;
49131;SDS011;35149;51.196;6.204;2022-10-16T04:11:26;1.48;;;0.73;;
49131;SDS011;35149;51.196;6.204;2022-10-16T04:13:53;1.10;;;0.80;;
49131;SDS011;35149;51.196;6.204;2022-10-16T04:16:20;1.13;;;0.70;;
49131;SDS011;35149;51.196;6.204;2022-10-16T04:18:47;3.15;;;0.80;;
49131;SDS011;35149;51.196;6.204;2022-10-16T04:21:16;1.38;;;0.88;;
49131;SDS011;35149;51.196;6.204;2022-10-16T04:23:47;1.10;;;1.00;;
49131;SDS011;35149;51.196;6.204;2022-10-16T04:26:15;0.70;;;0.70;;
49131;SDS011;35149;51.196;6.204;2022-10-16T04:28:44;0.80;;;0.80;;
49131;SDS011;35149;51.196;6.204;2022-10-16T04:31:11;1.20;;;0.85;;
49131;SDS011;35149;51.196;6.204;2022-10-16T04:33:37;1.33;;;0.80;;
49131;SDS011;35149;51.196;6.204;2022-10-16T04:36:04;1.30;;;0.82;;
49131;SDS011;35149;51.196;6.204;2022-10-16T04:38:35;0.55;;;0.55;;
49131;SDS011;35149;51.196;6.204;2022-10-16T04:41:05;2.67;;;0.77;;
49131;SDS011;35149;51.196;6.204;2022-10-16T04:43:33;1.50;;;0.70;;
49131;SDS011;35149;51.196;6.204;2022-10-16T04:46:00;1.05;;;0.70;;
49131;SDS011;35149;51.196;6.204;2022-10-16T04:48:30;1.17;;;0.88;;
49131;SDS011;35149;51.196;6.204;2022-10-16T04:50:57;0.95;;;0.75;;
49131;SDS011;35149;51.196;6.204;2022-10-16T04:53:23;2.85;;;1.38;;
49131;SDS011;35149;51.196;6.204;2022-10-16T04:55:50;1.17;;;0.70;;
49131;SDS011;35149;51.196;6.204;2022-10-16T04:58:17;0.80;;;0.63;;
49131;SDS011;35149;51.196;6.204;2022-10-16T05:00:44;1.83;;;1.05;;
49131;SDS011;35149;51.196;6.204;2022-10-16T05:03:14;1.27;;;1.17;;
49131;SDS011;35149;51.196;6.204;2022-10-16T05:05:44;0.80;;;0.80;;
49131;SDS011;35149;51.196;6.204;2022-10-16T05:08:12;2.80;;;1.30;;
49131;SDS011;35149;51.196;6.204;2022-10-16T05:10:43;0.90;;;0.90;;
49131;SDS011;35149;51.196;6.204;2022-10-16T05:13:13;1.70;;;0.90;;
49131;SDS011;35149;51.196;6.204;2022-10-16T05:15:46;2.13;;;1.00;;
49131;SDS011;35149;51.196;6.204;2022-10-16T05:18:15;1.13;;;1.02;;
49131;SDS011;35149;51.196;6.204;2022-10-16T05:20:47;3.25;;;1.20;;
49131;SDS011;35149;51.196;6.204;2022-10-16T05:23:15;3.08;;;1.10;;
49131;SDS011;35149;51.196;6.204;2022-10-16T05:25:51;2.45;;;1.10;;
49131;SDS011;35149;51.196;6.204;2022-10-16T05:28:24;0.88;;;0.88;;
49131;SDS011;35149;51.196;6.204;2022-10-16T05:30:52;1.75;;;1.08;;
49131;SDS011;35149;51.196;6.204;2022-10-16T05:33:19;3.13;;;1.13;;
49131;SDS011;35149;51.196;6.204;2022-10-16T05:35:47;1.50;;;1.05;;
49131;SDS011;35149;51.196;6.204;2022-10-16T05:38:16;1.63;;;1.25;;
49131;SDS011;35149;51.196;6.204;2022-10-16T05:40:43;2.50;;;1.25;;
49131;SDS011;35149;51.196;6.204;2022-10-16T05:43:16;1.50;;;1.20;;
49131;SDS011;35149;51.196;6.204;2022-10-16T05:45:42;2.03;;;1.38;;
49131;SDS011;35149;51.196;6.204;2022-10-16T05:48:09;3.58;;;1.20;;
49131;SDS011;35149;51.196;6.204;2022-10-16T05:50:36;3.05;;;1.80;;
49131;SDS011;35149;51.196;6.204;2022-10-16T05:53:04;2.25;;;1.15;;
49131;SDS011;35149;51.196;6.204;2022-10-16T05:55:30;1.52;;;1.33;;
49131;SDS011;35149;51.196;6.204;2022-10-16T05:57:57;1.70;;;1.52;;
49131;SDS011;35149;51.196;6.204;2022-10-16T06:00:24;1.88;;;1.20;;
49131;SDS011;35149;51.196;6.204;2022-10-16T06:02:50;1.98;;;1.60;;
49131;SDS011;35149;51.196;6.204;2022-10-16T06:05:17;1.90;;;1.13;;
49131;SDS011;35149;51.196;6.204;2022-10-16T06:07:49;3.42;;;1.23;;
49131;SDS011;35149;51.196;6.204;2022-10-16T06:10:17;1.52;;;1.42;;
49131;SDS011;35149;51.196;6.204;2022-10-16T06:12:44;2.80;;;1.80;;
49131;SDS011;35149;51.196;6.204;2022-10-16T06:15:10;1.70;;;1.60;;
49131;SDS011;35149;51.196;6.204;2022-10-16T06:17:37;1.65;;;1.55;;
49131;SDS011;35149;51.196;6.204;2022-10-16T06:20:04;1.55;;;1.42;;
49131;SDS011;35149;51.196;6.204;2022-10-16T06:22:31;1.70;;;1.60;;
49131;SDS011;35149;51.196;6.204;2022-10-16T06:24:58;1.50;;;1.40;;
49131;SDS011;35149;51.196;6.204;2022-10-16T06:27:24;2.03;;;1.60;;
49131;SDS011;35149;51.196;6.204;2022-10-16T06:29:52;2.05;;;1.85;;
49131;SDS011;35149;51.196;6.204;2022-10-16T06:32:23;2.22;;;1.83;;
49131;SDS011;35149;51.196;6.204;2022-10-16T06:34:49;2.30;;;1.30;;
49131;SDS011;35149;51.196;6.204;2022-10-16T06:37:16;2.53;;;1.63;;
49131;SDS011;35149;51.196;6.204;2022-10-16T06:39:43;1.58;;;1.45;;
49131;SDS011;35149;51.196;6.204;2022-10-16T06:42:09;1.52;;;1.42;;
49131;SDS011;35149;51.196;6.204;2022-10-16T06:44:36;1.77;;;1.52;;
49131;SDS011;35149;51.196;6.204;2022-10-16T06:47:03;1.83;;;1.38;;
49131;SDS011;35149;51.196;6.204;2022-10-16T06:49:29;2.10;;;1.90;;
49131;SDS011;35149;51.196;6.204;2022-10-16T06:51:56;1.70;;;1.60;;
49131;SDS011;35149;51.196;6.204;2022-10-16T06:54:23;2.13;;;1.10;;
49131;SDS011;35149;51.196;6.204;2022-10-16T06:56:50;2.40;;;1.45;;
49131;SDS011;35149;51.196;6.204;2022-10-16T06:59:17;2.40;;;1.63;;
49131;SDS011;35149;51.196;6.204;2022-10-16T07:01:44;1.90;;;1.80;;
49131;SDS011;35149;51.196;6.204;2022-10-16T07:04:10;2.72;;;1.73;;
49131;SDS011;35149;51.196;6.204;2022-10-16T07:06:37;2.83;;;1.52;;
49131;SDS011;35149;51.196;6.204;2022-10-16T07:09:05;1.92;;;1.70;;
49131;SDS011;35149;51.196;6.204;2022-10-16T07:11:35;2.17;;;1.67;;
49131;SDS011;35149;51.196;6.204;2022-10-16T07:14:03;2.50;;;1.75;;
49131;SDS011;35149;51.196;6.204;2022-10-16T07:16:31;2.80;;;1.48;;
49131;SDS011;35149;51.196;6.204;2022-10-16T07:19:01;2.42;;;1.85;;
49131;SDS011;35149;51.196;6.204;2022-10-16T07:21:29;3.78;;;3.00;;
49131;SDS011;35149;51.196;6.204;2022-10-16T07:24:01;3.65;;;2.30;;
49131;SDS011;35149;51.196;6.204;2022-10-16T07:26:29;2.70;;;2.25;;
49131;SDS011;35149;51.196;6.204;2022-10-16T07:28:57;2.30;;;1.98;;
49131;SDS011;35149;51.196;6.204;2022-10-16T07:31:24;4.93;;;2.15;;
49131;SDS011;35149;51.196;6.204;2022-10-16T07:33:51;4.45;;;1.98;;
49131;SDS011;35149;51.196;6.204;2022-10-16T07:36:18;2.45;;;1.95;;
49131;SDS011;35149;51.196;6.204;2022-10-16T07:38:46;2.85;;;2.40;;
49131;SDS011;35149;51.196;6.204;2022-10-16T07:41:14;2.03;;;1.83;;
49131;SDS011;35149;51.196;6.204;2022-10-16T07:43:46;4.60;;;1.60;;
49131;SDS011;35149;51.196;6.204;2022-10-16T07:46:13;2.15;;;1.85;;
49131;SDS011;35149;51.196;6.204;2022-10-16T07:48:40;1.65;;;1.30;;
49131;SDS011;35149;51.196;6.204;2022-10-16T07:51:11;2.65;;;1.35;;
49131;SDS011;35149;51.196;6.204;2022-10-16T07:53:40;4.43;;;1.38;;
49131;SDS011;35149;51.196;6.204;2022-10-16T07:56:07;3.05;;;1.70;;
49131;SDS011;35149;51.196;6.204;2022-10-16T07:58:34;3.45;;;1.73;;
49131;SDS011;35149;51.196;6.204;2022-10-16T08:01:05;3.67;;;1.27;;
49131;SDS011;35149;51.196;6.204;2022-10-16T08:03:34;2.78;;;2.08;;
49131;SDS011;35149;51.196;6.204;2022-10-16T08:06:01;1.50;;;1.27;;
49131;SDS011;35149;51.196;6.204;2022-10-16T08:08:28;4.90;;;1.33;;
49131;SDS011;35149;51.196;6.204;2022-10-16T08:10:55;1.52;;;1.02;;
49131;SDS011;35149;51.196;6.204;2022-10-16T08:13:22;3.80;;;1.42;;
49131;SDS011;35149;51.196;6.204;2022-10-16T08:15:53;2.17;;;1.50;;
49131;SDS011;35149;51.196;6.204;2022-10-16T08:18:20;2.88;;;1.80;;
49131;SDS011;35149;51.196;6.204;2022-10-16T08:20:47;3.75;;;1.20;;
49131;SDS011;35149;51.196;6.204;2022-10-16T08:23:20;3.63;;;1.50;;
49131;SDS011;35149;51.196;6.204;2022-10-16T08:25:47;1.30;;;1.20;;
49131;SDS011;35149;51.196;6.204;2022-10-16T08:28:14;2.92;;;1.45;;
49131;SDS011;35149;51.196;6.204;2022-10-16T08:30:41;1.52;;;1.08;;
49131;SDS011;35149;51.196;6.204;2022-10-16T08:33:08;1.77;;;1.65;;
49131;SDS011;35149;51.196;6.204;2022-10-16T08:35:35;1.73;;;1.33;;
49131;SDS011;35149;51.196;6.204;2022-10-16T08:38:05;2.17;;;1.02;;
49131;SDS011;35149;51.196;6.204;2022-10-16T08:40:33;2.25;;;1.25;;
49131;SDS011;35149;51.196;6.204;2022-10-16T08:45:53;1.00;;;0.93;;
49131;SDS011;35149;51.196;6.204;2022-10-16T08:48:35;1.10;;;1.00;;
49131;SDS011;35149;51.196;6.204;2022-10-16T08:54:15;1.83;;;1.17;;
49131;SDS011;35149;51.196;6.204;2022-10-16T08:57:09;1.70;;;0.80;;
49131;SDS011;35149;51.196;6.204;2022-10-16T08:59:49;1.33;;;0.95;;
49131;SDS011;35149;51.196;6.204;2022-10-16T09:02:31;1.25;;;1.02;;
49131;SDS011;35149;51.196;6.204;2022-10-16T09:05:11;1.40;;;0.95;;
49131;SDS011;35149;51.196;6.204;2022-10-16T09:07:46;2.28;;;1.10;;
49131;SDS011;35149;51.196;6.204;2022-10-16T09:15:58;3.00;;;0.90;;
49131;SDS011;35149;51.196;6.204;2022-10-16T09:21:18;1.70;;;0.85;;
49131;SDS011;35149;51.196;6.204;2022-10-16T09:24:00;1.95;;;0.98;;
49131;SDS011;35149;51.196;6.204;2022-10-16T09:26:39;1.85;;;0.80;;
49131;SDS011;35149;51.196;6.204;2022-10-16T09:29:06;1.05;;;0.60;;
49131;SDS011;35149;51.196;6.204;2022-10-16T09:31:33;2.33;;;1.38;;
49131;SDS011;35149;51.196;6.204;2022-10-16T09:34:02;1.40;;;0.63;;
49131;SDS011;35149;51.196;6.204;2022-10-16T09:36:38;2.35;;;0.77;;
49131;SDS011;35149;51.196;6.204;2022-10-16T09:39:08;1.92;;;1.00;;
49131;SDS011;35149;51.196;6.204;2022-10-16T09:41:41;2.65;;;1.05;;
49131;SDS011;35149;51.196;6.204;2022-10-16T09:44:24;1.30;;;0.88;;
49131;SDS011;35149;51.196;6.204;2022-10-16T09:47:05;1.13;;;0.60;;
49131;SDS011;35149;51.196;6.204;2022-10-16T09:49:39;1.60;;;0.70;;
49131;SDS011;35149;51.196;6.204;2022-10-16T09:52:16;1.00;;;0.90;;
49131;SDS011;35149;51.196;6.204;2022-10-16T09:54:57;1.27;;;0.70;;
49131;SDS011;35149;51.196;6.204;2022-10-16T09:57:26;1.75;;;0.68;;
49131;SDS011;35149;51.196;6.204;2022-10-16T09:59:54;1.88;;;0.80;;
49131;SDS011;35149;51.196;6.204;2022-10-16T10:02:43;3.42;;;0.65;;
49131;SDS011;35149;51.196;6.204;2022-10-16T10:07:45;2.15;;;0.80;;
49131;SDS011;35149;51.196;6.204;2022-10-16T10:10:19;2.45;;;0.60;;
49131;SDS011;35149;51.196;6.204;2022-10-16T10:12:56;1.80;;;0.75;;
49131;SDS011;35149;51.196;6.204;2022-10-16T10:15:24;1.77;;;0.85;;
49131;SDS011;35149;51.196;6.204;2022-10-16T10:17:56;1.30;;;0.80;;
49131;SDS011;35149;51.196;6.204;2022-10-16T10:20:25;1.33;;;0.65;;
49131;SDS011;35149;51.196;6.204;2022-10-16T10:22:56;1.63;;;0.90;;
49131;SDS011;35149;51.196;6.204;2022-10-16T10:28:23;3.50;;;0.90;;
49131;SDS011;35149;51.196;6.204;2022-10-16T10:44:42;2.47;;;0.57;;
49131;SDS011;35149;51.196;6.204;2022-10-16T10:56:14;0.93;;;0.50;;
49131;SDS011;35149;51.196;6.204;2022-10-16T10:58:44;2.13;;;0.43;;
49131;SDS011;35149;51.196;6.204;2022-10-16T11:01:39;1.17;;;0.40;;
49131;SDS011;35149;51.196;6.204;2022-10-16T11:04:34;2.78;;;0.80;;
49131;SDS011;35149;51.196;6.204;2022-10-16T11:09:47;1.83;;;0.80;;
49131;SDS011;35149;51.196;6.204;2022-10-16T11:12:21;3.13;;;0.70;;
49131;SDS011;35149;51.196;6.204;2022-10-16T11:14:56;1.70;;;0.52;;
49131;SDS011;35149;51.196;6.204;2022-10-16T11:20:46;0.80;;;0.63;;
49131;SDS011;35149;51.196;6.204;2022-10-16T11:23:25;1.13;;;0.50;;
49131;SDS011;35149;51.196;6.204;2022-10-16T11:25:56;3.17;;;0.90;;
49131;SDS011;35149;51.196;6.204;2022-10-16T11:28:27;1.43;;;0.73;;
49131;SDS011;35149;51.196;6.204;2022-10-16T11:34:03;1.17;;;0.40;;
49131;SDS011;35149;51.196;6.204;2022-10-16T11:36:43;2.17;;;0.85;;
49131;SDS011;35149;51.196;6.204;2022-10-16T11:39:45;2.97;;;0.80;;
49131;SDS011;35149;51.196;6.204;2022-10-16T11:42:16;1.38;;;0.50;;
49131;SDS011;35149;51.196;6.204;2022-10-16T11:48:38;4.70;;;1.23;;
49131;SDS011;35149;51.196;6.204;2022-10-16T11:51:09;0.70;;;0.50;;
49131;SDS011;35149;51.196;6.204;2022-10-16T11:53:52;2.47;;;0.52;;
49131;SDS011;35149;51.196;6.204;2022-10-16T11:56:24;0.82;;;0.40;;
49131;SDS011;35149;51.196;6.204;2022-10-16T11:59:03;2.25;;;0.50;;
49131;SDS011;35149;51.196;6.204;2022-10-16T12:01:44;1.55;;;0.50;;
49131;SDS011;35149;51.196;6.204;2022-10-16T12:04:31;2.50;;;0.60;;
49131;SDS011;35149;51.196;6.204;2022-10-16T12:07:14;0.52;;;0.40;;
49131;SDS011;35149;51.196;6.204;2022-10-16T12:09:47;0.82;;;0.60;;
49131;SDS011;35149;51.196;6.204;2022-10-16T12:12:26;1.02;;;0.57;;
49131;SDS011;35149;51.196;6.204;2022-10-16T12:15:18;2.75;;;0.57;;
49131;SDS011;35149;51.196;6.204;2022-10-16T12:18:03;1.50;;;0.60;;
49131;SDS011;35149;51.196;6.204;2022-10-16T12:20:30;1.70;;;0.80;;
49131;SDS011;35149;51.196;6.204;2022-10-16T12:23:06;1.48;;;0.50;;
49131;SDS011;35149;51.196;6.204;2022-10-16T12:25:53;0.52;;;0.45;;
49131;SDS011;35149;51.196;6.204;2022-10-16T12:28:26;2.15;;;0.60;;
49131;SDS011;35149;51.196;6.204;2022-10-16T12:36:00;0.65;;;0.50;;
49131;SDS011;35149;51.196;6.204;2022-10-16T12:41:23;1.17;;;0.40;;
49131;SDS011;35149;51.196;6.204;2022-10-16T12:43:52;0.52;;;0.50;;
49131;SDS011;35149;51.196;6.204;2022-10-16T12:46:21;2.28;;;0.60;;
49131;SDS011;35149;51.196;6.204;2022-10-16T12:49:04;4.22;;;0.60;;
49131;SDS011;35149;51.196;6.204;2022-10-16T12:51:35;0.98;;;0.40;;
49131;SDS011;35149;51.196;6.204;2022-10-16T12:54:17;0.68;;;0.40;;
49131;SDS011;35149;51.196;6.204;2022-10-16T12:59:41;1.13;;;0.47;;
49131;SDS011;35149;51.196;6.204;2022-10-16T13:02:21;2.92;;;0.65;;
49131;SDS011;35149;51.196;6.204;2022-10-16T13:05:14;1.02;;;0.40;;
49131;SDS011;35149;51.196;6.204;2022-10-16T13:13:32;1.30;;;0.50;;
49131;SDS011;35149;51.196;6.204;2022-10-16T13:16:18;0.55;;;0.55;;
49131;SDS011;35149;51.196;6.204;2022-10-16T13:21:53;1.77;;;0.63;;
49131;SDS011;35149;51.196;6.204;2022-10-16T13:27:29;0.82;;;0.50;;
49131;SDS011;35149;51.196;6.204;2022-10-16T13:30:21;0.30;;;0.30;;
49131;SDS011;35149;51.196;6.204;2022-10-16T13:33:03;1.77;;;1.15;;
49131;SDS011;35149;51.196;6.204;2022-10-16T13:35:46;1.35;;;0.50;;
49131;SDS011;35149;51.196;6.204;2022-10-16T13:38:17;2.17;;;0.40;;
49131;SDS011;35149;51.196;6.204;2022-10-16T13:40:54;0.57;;;0.40;;
49131;SDS011;35149;51.196;6.204;2022-10-16T13:43:27;1.73;;;0.38;;
49131;SDS011;35149;51.196;6.204;2022-10-16T13:46:00;0.60;;;0.30;;
49131;SDS011;35149;51.196;6.204;2022-10-16T13:48:38;1.90;;;0.50;;
49131;SDS011;35149;51.196;6.204;2022-10-16T13:51:17;1.30;;;0.50;;
49131;SDS011;35149;51.196;6.204;2022-10-16T13:53:45;2.40;;;0.38;;
49131;SDS011;35149;51.196;6.204;2022-10-16T13:56:16;1.25;;;0.70;;
49131;SDS011;35149;51.196;6.204;2022-10-16T13:58:45;0.75;;;0.40;;
49131;SDS011;35149;51.196;6.204;2022-10-16T14:01:19;2.47;;;0.43;;
49131;SDS011;35149;51.196;6.204;2022-10-16T14:04:07;2.20;;;0.45;;
49131;SDS011;35149;51.196;6.204;2022-10-16T14:06:36;5.38;;;0.70;;
49131;SDS011;35149;51.196;6.204;2022-10-16T14:11:53;2.22;;;0.40;;
49131;SDS011;35149;51.196;6.204;2022-10-16T14:14:34;1.10;;;0.88;;
49131;SDS011;35149;51.196;6.204;2022-10-16T14:19:53;2.28;;;0.32;;
49131;SDS011;35149;51.196;6.204;2022-10-16T14:27:45;0.82;;;0.70;;
49131;SDS011;35149;51.196;6.204;2022-10-16T14:30:32;1.95;;;0.60;;
49131;SDS011;35149;51.196;6.204;2022-10-16T14:33:02;13.38;;;12.13;;
49131;SDS011;35149;51.196;6.204;2022-10-16T14:35:36;19.92;;;17.55;;
49131;SDS011;35149;51.196;6.204;2022-10-16T14:38:05;12.85;;;11.13;;
49131;SDS011;35149;51.196;6.204;2022-10-16T14:40:46;7.40;;;6.53;;
49131;SDS011;35149;51.196;6.204;2022-10-16T14:43:17;5.68;;;4.78;;
49131;SDS011;35149;51.196;6.204;2022-10-16T14:45:59;2.72;;;2.17;;
49131;SDS011;35149;51.196;6.204;2022-10-16T14:48:28;3.83;;;2.05;;
49131;SDS011;35149;51.196;6.204;2022-10-16T14:50:55;3.75;;;1.70;;
49131;SDS011;35149;51.196;6.204;2022-10-16T14:53:22;2.22;;;2.00;;
49131;SDS011;35149;51.196;6.204;2022-10-16T14:55:49;2.47;;;1.33;;
49131;SDS011;35149;51.196;6.204;2022-10-16T14:58:16;1.05;;;0.93;;
49131;SDS011;35149;51.196;6.204;2022-10-16T15:00:45;1.58;;;1.00;;
49131;SDS011;35149;51.196;6.204;2022-10-16T15:03:12;1.25;;;0.80;;
49131;SDS011;35149;51.196;6.204;2022-10-16T15:05:39;1.38;;;0.80;;
49131;SDS011;35149;51.196;6.204;2022-10-16T15:08:06;1.63;;;0.90;;
49131;SDS011;35149;51.196;6.204;2022-10-16T15:10:36;1.80;;;0.70;;
49131;SDS011;35149;51.196;6.204;2022-10-16T15:13:08;0.90;;;0.77;;
49131;SDS011;35149;51.196;6.204;2022-10-16T15:15:38;1.85;;;1.15;;
49131;SDS011;35149;51.196;6.204;2022-10-16T15:18:09;1.50;;;1.40;;
49131;SDS011;35149;51.196;6.204;2022-10-16T15:20:37;1.33;;;1.23;;
49131;SDS011;35149;51.196;6.204;2022-10-16T15:23:06;2.70;;;1.10;;
49131;SDS011;35149;51.196;6.204;2022-10-16T15:28:14;1.50;;;1.00;;
49131;SDS011;35149;51.196;6.204;2022-10-16T15:30:42;1.25;;;0.70;;
49131;SDS011;35149;51.196;6.204;2022-10-16T15:33:12;1.02;;;0.90;;
49131;SDS011;35149;51.196;6.204;2022-10-16T15:38:12;2.70;;;1.23;;
49131;SDS011;35149;51.196;6.204;2022-10-16T15:40:40;2.15;;;1.42;;
49131;SDS011;35149;51.196;6.204;2022-10-16T15:43:09;2.22;;;1.25;;
49131;SDS011;35149;51.196;6.204;2022-10-16T15:45:36;1.73;;;1.60;;
49131;SDS011;35149;51.196;6.204;2022-10-16T15:48:03;2.13;;;1.50;;
49131;SDS011;35149;51.196;6.204;2022-10-16T15:50:30;2.90;;;1.67;;
49131;SDS011;35149;51.196;6.204;2022-10-16T15:52:58;1.85;;;1.75;;
49131;SDS011;35149;51.196;6.204;2022-10-16T15:55:24;3.33;;;1.90;;
49131;SDS011;35149;51.196;6.204;2022-10-16T15:57:51;2.17;;;1.55;;
49131;SDS011;35149;51.196;6.204;2022-10-16T16:00:19;4.25;;;2.05;;
49131;SDS011;35149;51.196;6.204;2022-10-16T16:02:52;2.00;;;1.85;;
49131;SDS011;35149;51.196;6.204;2022-10-16T16:05:19;1.85;;;1.48;;
49131;SDS011;35149;51.196;6.204;2022-10-16T16:07:49;3.47;;;1.33;;
49131;SDS011;35149;51.196;6.204;2022-10-16T16:10:17;2.17;;;1.35;;
49131;SDS011;35149;51.196;6.204;2022-10-16T16:12:47;2.05;;;1.38;;
49131;SDS011;35149;51.196;6.204;2022-10-16T16:17:48;1.33;;;1.08;;
49131;SDS011;35149;51.196;6.204;2022-10-16T16:20:15;2.35;;;1.40;;
49131;SDS011;35149;51.196;6.204;2022-10-16T16:22:43;1.40;;;1.02;;
49131;SDS011;35149;51.196;6.204;2022-10-16T16:25:12;2.10;;;1.33;;
49131;SDS011;35149;51.196;6.204;2022-10-16T16:27:38;1.20;;;1.10;;
49131;SDS011;35149;51.196;6.204;2022-10-16T16:30:06;1.15;;;0.95;;
49131;SDS011;35149;51.196;6.204;2022-10-16T16:32:34;1.20;;;1.10;;
49131;SDS011;35149;51.196;6.204;2022-10-16T16:35:01;1.42;;;1.10;;
49131;SDS011;35149;51.196;6.204;2022-10-16T16:37:28;1.52;;;1.02;;
49131;SDS011;35149;51.196;6.204;2022-10-16T16:39:56;1.20;;;1.10;;
49131;SDS011;35149;51.196;6.204;2022-10-16T16:42:25;1.25;;;1.13;;
49131;SDS011;35149;51.196;6.204;2022-10-16T16:44:55;1.38;;;0.85;;
49131;SDS011;35149;51.196;6.204;2022-10-16T16:47:22;2.25;;;1.40;;
49131;SDS011;35149;51.196;6.204;2022-10-16T16:49:50;4.25;;;1.20;;
49131;SDS011;35149;51.196;6.204;2022-10-16T16:52:17;1.17;;;0.80;;
49131;SDS011;35149;51.196;6.204;2022-10-16T16:54:44;2.90;;;1.05;;
49131;SDS011;35149;51.196;6.204;2022-10-16T16:57:18;3.53;;;1.75;;
49131;SDS011;35149;51.196;6.204;2022-10-16T16:59:55;1.83;;;1.35;;
49131;SDS011;35149;51.196;6.204;2022-10-16T17:02:22;3.20;;;1.70;;
49131;SDS011;35149;51.196;6.204;2022-10-16T17:04:52;3.47;;;1.40;;
49131;SDS011;35149;51.196;6.204;2022-10-16T17:07:22;1.70;;;1.60;;